Time;durP1;ratioP1;P1;durP2;ratioP2;P2;SDS_P1;SDS_P2;PMS_P1;PMS_P2;Temp;Humidity;BMP_temperature;BMP_pressure;BME280_temperature;BME280_humidity;BME280_pressure;Samples;Min_cycle;Max_cycle;Signal;HPM_P1;HPM_P2
2023/01/30 00:01:46;;;;;;;13.05;9.45;;;;;12.40;101519.00;;;;5087444;28;20190;-74
2023/01/30 00:04:14;;;;;;;15.48;10.27;;;;;12.40;101516.00;;;;5086845;28;20198;-74
2023/01/30 00:06:41;;;;;;;14.68;10.85;;;;;12.40;101520.00;;;;5073450;28;20676;-74
2023/01/30 00:09:10;;;;;;;13.25;9.65;;;;;12.40;101512.00;;;;5087715;28;20194;-74
2023/01/30 00:11:38;;;;;;;13.93;10.10;;;;;12.40;101516.00;;;;5087358;28;20207;-74
2023/01/30 00:14:05;;;;;;;14.65;9.68;;;;;12.40;101498.00;;;;5087113;28;20187;-74
2023/01/30 00:16:34;;;;;;;14.32;10.13;;;;;12.40;101518.00;;;;5073440;28;20229;-74
2023/01/30 00:19:01;;;;;;;11.48;9.38;;;;;12.50;101527.00;;;;5067957;28;20216;-74
2023/01/30 00:21:28;;;;;;;12.18;9.38;;;;;12.50;101516.00;;;;5078077;28;20209;-74
2023/01/30 00:23:56;;;;;;;14.25;10.90;;;;;12.50;101508.00;;;;5079804;28;20207;-74
2023/01/30 00:26:23;;;;;;;14.55;10.13;;;;;12.50;101495.00;;;;5078427;28;20198;-74
2023/01/30 00:28:50;;;;;;;14.35;9.57;;;;;12.50;101496.00;;;;5078141;28;20201;-74
2023/01/30 00:31:18;;;;;;;13.38;8.65;;;;;12.60;101494.00;;;;5089312;28;20218;-74
2023/01/30 00:33:46;;;;;;;12.27;8.45;;;;;12.60;101494.00;;;;5075040;28;20207;-75
2023/01/30 00:36:14;;;;;;;14.07;9.48;;;;;12.60;101480.00;;;;5070542;28;20708;-75
2023/01/30 00:38:41;;;;;;;12.07;9.57;;;;;12.60;101478.00;;;;5075958;28;20218;-74
2023/01/30 00:41:09;;;;;;;11.35;7.68;;;;;12.60;101471.00;;;;5089385;28;20200;-74
2023/01/30 00:49:14;;;;;;;9.38;6.90;;;;;12.70;101453.00;;;;5063509;28;20259;-74
2023/01/30 00:51:41;;;;;;;9.15;7.00;;;;;12.70;101454.00;;;;5090469;28;20219;-74
2023/01/30 00:54:09;;;;;;;9.43;6.80;;;;;12.80;101450.00;;;;5089715;28;20202;-74
2023/01/30 00:56:36;;;;;;;11.15;7.20;;;;;12.80;101448.00;;;;5079809;28;20595;-74
2023/01/30 00:59:03;;;;;;;8.10;5.82;;;;;12.80;101461.00;;;;5079328;28;20194;-74
2023/01/30 01:01:30;;;;;;;9.32;6.43;;;;;12.80;101460.00;;;;5085393;28;20201;-74
2023/01/30 01:03:58;;;;;;;7.63;5.93;;;;;12.90;101445.00;;;;5070013;28;20203;-74
2023/01/30 01:06:26;;;;;;;10.18;5.97;;;;;12.90;101451.00;;;;5069934;28;20202;-74
2023/01/30 01:08:54;;;;;;;9.45;5.38;;;;;12.90;101453.00;;;;5070001;28;20202;-75
2023/01/30 01:11:24;;;;;;;7.63;5.22;;;;;12.90;101446.00;;;;5070803;28;20210;-74
2023/01/30 01:13:53;;;;;;;10.05;5.65;;;;;13.00;101432.00;;;;5072047;28;20207;-74
2023/01/30 01:16:20;;;;;;;9.13;5.13;;;;;13.00;101431.00;;;;5079572;28;20227;-75
2023/01/30 01:18:48;;;;;;;7.22;5.03;;;;;13.00;101422.00;;;;5083201;28;20406;-75
2023/01/30 01:21:15;;;;;;;8.45;5.03;;;;;13.00;101416.00;;;;5087698;28;20555;-74
2023/01/30 01:23:44;;;;;;;6.55;4.65;;;;;13.00;101409.00;;;;5089884;28;20202;-74
2023/01/30 01:26:11;;;;;;;6.57;5.03;;;;;13.10;101411.00;;;;5090651;28;20205;-74
2023/01/30 01:28:39;;;;;;;7.78;4.55;;;;;13.10;101407.00;;;;5086986;28;20201;-74
2023/01/30 01:31:10;;;;;;;10.05;5.00;;;;;13.10;101397.00;;;;5082941;28;20582;-75
2023/01/30 01:33:37;;;;;;;9.57;4.95;;;;;13.10;101394.00;;;;5077333;28;20286;-74
2023/01/30 01:36:05;;;;;;;8.25;4.70;;;;;13.10;101393.00;;;;5073203;28;20235;-75
2023/01/30 01:38:33;;;;;;;8.35;5.22;;;;;13.10;101391.00;;;;5075897;28;20203;-75
2023/01/30 01:41:00;;;;;;;10.25;5.43;;;;;13.10;101395.00;;;;5088541;28;20191;-74
2023/01/30 01:43:30;;;;;;;8.15;4.07;;;;;13.20;101377.00;;;;5088735;28;20206;-74
2023/01/30 01:46:02;;;;;;;9.77;4.88;;;;;13.20;101372.00;;;;5082553;28;21057;-74
2023/01/30 01:48:32;;;;;;;6.22;3.70;;;;;13.20;101378.00;;;;5069137;28;20191;-75
2023/01/30 01:51:03;;;;;;;6.93;3.50;;;;;13.20;101376.00;;;;5087217;28;20214;-75
2023/01/30 01:53:35;;;;;;;6.72;4.15;;;;;13.10;101373.00;;;;5089413;28;20202;-74
2023/01/30 01:56:05;;;;;;;7.95;4.13;;;;;13.20;101370.00;;;;5089206;28;20230;-75
2023/01/30 01:58:37;;;;;;;4.95;3.58;;;;;13.20;101368.00;;;;5087241;28;20205;-75
2023/01/30 02:01:05;;;;;;;6.22;3.35;;;;;13.20;101372.00;;;;5088390;28;20660;-74
2023/01/30 02:03:37;;;;;;;7.38;3.67;;;;;13.20;101383.00;;;;5082844;28;20202;-74
2023/01/30 02:06:06;;;;;;;4.72;2.90;;;;;13.20;101376.00;;;;5088612;28;20210;-74
2023/01/30 02:08:37;;;;;;;6.13;3.35;;;;;13.20;101365.00;;;;5078287;28;20206;-74
2023/01/30 02:11:10;;;;;;;5.45;3.30;;;;;13.20;101375.00;;;;5072986;28;20191;-75
2023/01/30 02:13:38;;;;;;;5.60;2.90;;;;;13.30;101372.00;;;;5083014;28;20212;-75
2023/01/30 02:16:08;;;;;;;8.65;3.40;;;;;13.20;101370.00;;;;5068949;28;20225;-75
2023/01/30 02:18:39;;;;;;;5.47;2.92;;;;;13.20;101371.00;;;;5068598;28;20575;-74
2023/01/30 02:21:43;;;;;;;3.08;2.45;;;;;13.20;101372.00;;;;5069087;28;20199;-75
2023/01/30 02:24:35;;;;;;;8.43;3.30;;;;;13.20;101373.00;;;;5067646;28;20202;-75
2023/01/30 02:27:46;;;;;;;6.60;2.45;;;;;13.10;101366.00;;;;5073152;28;21119;-75
2023/01/30 02:30:54;;;;;;;4.80;2.97;;;;;13.10;101370.00;;;;5088767;28;20194;-75
2023/01/30 02:33:34;;;;;;;8.27;3.28;;;;;13.20;101372.00;;;;5088940;28;20244;-75
2023/01/30 02:36:10;;;;;;;5.88;2.75;;;;;13.20;101363.00;;;;5081620;28;20237;-75
2023/01/30 02:38:47;;;;;;;7.35;3.10;;;;;13.20;101362.00;;;;5079391;28;20202;-75
2023/01/30 02:41:25;;;;;;;6.72;2.92;;;;;13.20;101347.00;;;;5088196;28;20201;-75
2023/01/30 02:43:59;;;;;;;5.28;2.83;;;;;13.20;101347.00;;;;5084010;28;20206;-75
2023/01/30 02:46:37;;;;;;;7.00;2.58;;;;;13.20;101346.00;;;;5087506;28;20236;-75
2023/01/30 02:49:08;;;;;;;4.38;3.22;;;;;13.20;101348.00;;;;5070969;28;20205;-75
2023/01/30 02:51:38;;;;;;;5.10;2.65;;;;;13.20;101351.00;;;;5072124;28;20293;-76
2023/01/30 02:54:07;;;;;;;4.90;2.90;;;;;13.20;101357.00;;;;5072156;28;20195;-75
2023/01/30 02:56:45;;;;;;;5.00;3.03;;;;;13.10;101349.00;;;;5086601;28;20634;-75
2023/01/30 02:59:15;;;;;;;3.78;2.10;;;;;13.20;101343.00;;;;5076569;28;21043;-75
2023/01/30 03:02:08;;;;;;;7.30;2.55;;;;;13.10;101346.00;;;;5070476;28;20205;-75
2023/01/30 03:04:48;;;;;;;4.00;1.80;;;;;13.10;101347.00;;;;5077046;28;20195;-76
2023/01/30 03:07:27;;;;;;;6.72;2.20;;;;;13.10;101344.00;;;;5072772;28;20190;-75
2023/01/30 03:10:04;;;;;;;4.63;2.53;;;;;13.20;101335.00;;;;5072525;28;20197;-75
2023/01/30 03:12:40;;;;;;;4.50;2.00;;;;;13.10;101339.00;;;;5068441;28;20718;-75
2023/01/30 03:15:13;;;;;;;6.82;2.58;;;;;13.20;101323.00;;;;5068118;28;20195;-75
2023/01/30 03:17:46;;;;;;;4.38;2.42;;;;;13.10;101320.00;;;;5079686;28;20683;-75
2023/01/30 03:20:14;;;;;;;5.40;2.10;;;;;13.20;101316.00;;;;5087528;28;20206;-76
2023/01/30 03:22:41;;;;;;;4.28;1.85;;;;;13.20;101316.00;;;;5086687;28;20202;-75
2023/01/30 03:25:11;;;;;;;3.78;2.15;;;;;13.20;101316.00;;;;5087479;28;20572;-76
2023/01/30 03:27:39;;;;;;;5.18;2.65;;;;;13.20;101314.00;;;;5081601;28;20207;-76
2023/01/30 03:30:07;;;;;;;3.78;1.98;;;;;13.20;101306.00;;;;5067675;28;20190;-75
2023/01/30 03:32:34;;;;;;;6.57;2.28;;;;;13.20;101311.00;;;;5067574;28;20199;-76
2023/01/30 03:35:03;;;;;;;5.85;2.38;;;;;13.20;101307.00;;;;5077331;28;20199;-75
2023/01/30 03:37:31;;;;;;;5.78;2.42;;;;;13.20;101307.00;;;;5081037;28;21047;-76
2023/01/30 03:39:59;;;;;;;7.75;2.30;;;;;13.20;101298.00;;;;5083491;28;20210;-76
2023/01/30 03:42:26;;;;;;;5.05;2.45;;;;;13.20;101306.00;;;;5080986;28;20195;-75
2023/01/30 03:44:54;;;;;;;8.77;2.30;;;;;13.20;101303.00;;;;5086055;28;20210;-75
2023/01/30 03:47:21;;;;;;;4.20;1.83;;;;;13.20;101306.00;;;;5074701;28;20227;-76
2023/01/30 03:49:48;;;;;;;4.22;2.10;;;;;13.20;101305.00;;;;5067954;28;20230;-76
2023/01/30 03:52:17;;;;;;;3.42;1.92;;;;;13.20;101306.00;;;;5085759;28;20587;-75
2023/01/30 03:54:44;;;;;;;6.05;2.40;;;;;13.20;101309.00;;;;5087617;28;20212;-75
2023/01/30 03:57:11;;;;;;;5.15;2.20;;;;;13.20;101307.00;;;;5088352;28;20222;-75
2023/01/30 03:59:39;;;;;;;3.88;1.65;;;;;13.20;101315.00;;;;5086320;28;20190;-75
2023/01/30 04:02:07;;;;;;;6.25;2.13;;;;;13.20;101311.00;;;;5084889;28;20206;-75
2023/01/30 04:04:34;;;;;;;5.88;2.42;;;;;13.20;101307.00;;;;5080699;28;20285;-76
2023/01/30 04:07:01;;;;;;;4.47;2.30;;;;;13.30;101309.00;;;;5090813;28;21009;-75
2023/01/30 04:09:30;;;;;;;8.60;2.75;;;;;13.30;101301.00;;;;5078361;28;20202;-75
2023/01/30 04:11:57;;;;;;;4.80;2.20;;;;;13.30;101303.00;;;;5071042;28;20195;-75
2023/01/30 04:14:25;;;;;;;4.45;2.17;;;;;13.30;101306.00;;;;5077894;28;20194;-75
2023/01/30 04:16:52;;;;;;;5.97;2.15;;;;;13.30;101309.00;;;;5075507;28;20223;-75
2023/01/30 04:19:19;;;;;;;6.53;1.75;;;;;13.30;101306.00;;;;5081430;28;20201;-75
2023/01/30 04:21:46;;;;;;;5.72;2.17;;;;;13.30;101300.00;;;;5072861;28;20206;-75
2023/01/30 04:24:14;;;;;;;5.97;1.80;;;;;13.40;101308.00;;;;5088907;28;20199;-75
2023/01/30 04:26:42;;;;;;;4.07;1.55;;;;;13.30;101308.00;;;;5090777;28;20221;-75
2023/01/30 04:29:10;;;;;;;9.75;1.70;;;;;13.40;101320.00;;;;5080139;28;20575;-75
2023/01/30 04:31:37;;;;;;;6.05;2.22;;;;;13.40;101313.00;;;;5079076;28;20195;-75
2023/01/30 04:34:04;;;;;;;6.05;1.35;;;;;13.40;101314.00;;;;5071157;28;20195;-75
2023/01/30 04:36:32;;;;;;;5.90;1.75;;;;;13.40;101317.00;;;;5077984;28;20210;-75
2023/01/30 04:38:59;;;;;;;2.95;1.88;;;;;13.40;101323.00;;;;5088932;28;20232;-75
2023/01/30 04:41:26;;;;;;;4.93;1.45;;;;;13.40;101322.00;;;;5082662;28;20194;-75
2023/01/30 04:43:55;;;;;;;5.63;1.65;;;;;13.40;101314.00;;;;5087261;28;20201;-75
2023/01/30 04:46:22;;;;;;;3.75;1.52;;;;;13.40;101326.00;;;;5089391;28;20244;-75
2023/01/30 04:48:49;;;;;;;5.85;1.65;;;;;13.50;101319.00;;;;5070964;28;20197;-75
2023/01/30 04:51:17;;;;;;;8.00;1.83;;;;;13.50;101319.00;;;;5082490;28;20217;-75
2023/01/30 04:53:44;;;;;;;5.15;1.55;;;;;13.50;101323.00;;;;5079766;28;20195;-75
2023/01/30 04:56:11;;;;;;;6.30;1.58;;;;;13.50;101333.00;;;;5080449;28;20230;-75
2023/01/30 04:58:38;;;;;;;5.47;1.80;;;;;13.40;101321.00;;;;5079950;28;20201;-75
2023/01/30 05:01:21;;;;;;;6.35;1.92;;;;;13.30;101306.00;;;;5091377;28;20201;-75
2023/01/30 05:03:51;;;;;;;3.00;1.13;;;;;13.40;101306.00;;;;5091302;28;20281;-75
2023/01/30 05:06:18;;;;;;;9.57;1.70;;;;;13.30;101308.00;;;;5090927;28;20201;-75
2023/01/30 05:08:48;;;;;;;3.35;1.73;;;;;13.30;101313.00;;;;5076648;28;20576;-75
2023/01/30 05:11:15;;;;;;;7.05;1.50;;;;;13.30;101322.00;;;;5076283;28;20208;-75
2023/01/30 05:13:43;;;;;;;7.13;1.30;;;;;13.30;101305.00;;;;5087959;28;20199;-75
2023/01/30 05:16:11;;;;;;;8.15;1.77;;;;;13.30;101323.00;;;;5078125;28;20190;-75
2023/01/30 05:18:39;;;;;;;4.47;1.38;;;;;13.30;101338.00;;;;5085747;28;20195;-75
2023/01/30 05:21:09;;;;;;;3.28;1.20;;;;;13.30;101327.00;;;;5085688;28;20202;-75
2023/01/30 05:23:36;;;;;;;3.75;1.55;;;;;13.30;101328.00;;;;5090608;28;20202;-75
2023/01/30 05:26:04;;;;;;;6.32;1.08;;;;;13.30;101339.00;;;;5090001;28;20200;-75
2023/01/30 05:28:31;;;;;;;5.13;1.10;;;;;13.40;101323.00;;;;5070598;28;20580;-75
2023/01/30 05:31:02;;;;;;;3.25;1.30;;;;;13.30;101324.00;;;;5072175;28;20198;-75
2023/01/30 05:33:29;;;;;;;1.55;0.70;;;;;13.40;101329.00;;;;5081752;28;20205;-73
2023/01/30 05:35:58;;;;;;;3.25;1.05;;;;;13.40;101334.00;;;;5089742;28;20222;-73
2023/01/30 05:38:25;;;;;;;4.93;1.13;;;;;13.40;101335.00;;;;5090237;28;20224;-73
2023/01/30 05:40:59;;;;;;;5.20;1.60;;;;;13.30;101330.00;;;;5087196;28;20217;-74
2023/01/30 05:43:27;;;;;;;5.43;1.13;;;;;13.30;101343.00;;;;5089285;28;20236;-74
2023/01/30 05:45:55;;;;;;;4.28;1.27;;;;;13.30;101347.00;;;;5070845;28;20231;-74
2023/01/30 05:48:23;;;;;;;6.68;1.52;;;;;13.30;101365.00;;;;5070269;28;20194;-73
2023/01/30 05:50:51;;;;;;;6.70;1.38;;;;;13.30;101364.00;;;;5083975;28;20218;-74
2023/01/30 05:53:21;;;;;;;7.18;1.38;;;;;13.30;101340.00;;;;5083713;28;20243;-74
2023/01/30 05:55:55;;;;;;;7.60;2.00;;;;;13.20;101342.00;;;;5075696;28;20207;-73
2023/01/30 05:58:22;;;;;;;7.25;1.80;;;;;13.20;101339.00;;;;5084567;28;20221;-74
2023/01/30 06:00:49;;;;;;;6.15;1.17;;;;;13.20;101356.00;;;;5074304;28;20187;-74
2023/01/30 06:03:17;;;;;;;8.18;1.90;;;;;13.20;101343.00;;;;5069452;28;20195;-73
2023/01/30 06:05:44;;;;;;;10.73;1.50;;;;;13.10;101347.00;;;;5073540;28;20205;-74
2023/01/30 06:08:11;;;;;;;6.60;1.15;;;;;13.10;101345.00;;;;5089635;28;20207;-74
2023/01/30 06:10:40;;;;;;;8.63;1.40;;;;;13.00;101366.00;;;;5089498;28;20198;-73
2023/01/30 06:13:09;;;;;;;5.03;1.38;;;;;13.00;101344.00;;;;5069633;28;20191;-73
2023/01/30 06:15:37;;;;;;;8.50;1.50;;;;;13.00;101349.00;;;;5076196;28;20289;-74
2023/01/30 06:18:04;;;;;;;7.70;1.60;;;;;12.90;101349.00;;;;5087256;28;20221;-73
2023/01/30 06:20:31;;;;;;;6.05;1.40;;;;;12.90;101373.00;;;;5088741;28;20199;-74
2023/01/30 06:22:59;;;;;;;7.80;1.40;;;;;12.80;101376.00;;;;5075497;28;20207;-73
2023/01/30 06:25:26;;;;;;;6.88;1.40;;;;;12.80;101376.00;;;;5088706;28;20571;-73
2023/01/30 06:27:55;;;;;;;9.73;2.10;;;;;12.80;101388.00;;;;5087287;28;20186;-73
2023/01/30 06:30:22;;;;;;;9.88;2.15;;;;;12.70;101368.00;;;;5068749;28;20205;-74
2023/01/30 06:32:50;;;;;;;8.68;1.48;;;;;12.70;101367.00;;;;5068026;28;20202;-74
2023/01/30 06:35:18;;;;;;;8.48;1.42;;;;;12.60;101370.00;;;;5069719;28;20340;-74
2023/01/30 06:37:45;;;;;;;7.68;1.63;;;;;12.60;101371.00;;;;5079696;28;20695;-74
2023/01/30 06:40:13;;;;;;;7.50;1.38;;;;;12.60;101371.00;;;;5089245;28;20214;-74
2023/01/30 06:42:45;;;;;;;8.18;1.52;;;;;12.50;101382.00;;;;5068285;28;20203;-74
2023/01/30 06:45:15;;;;;;;8.77;1.88;;;;;12.50;101382.00;;;;5069078;28;20252;-75
2023/01/30 06:47:46;;;;;;;8.40;1.58;;;;;12.40;101361.00;;;;5068982;28;20238;-75
2023/01/30 06:50:13;;;;;;;4.28;1.33;;;;;12.40;101368.00;;;;5085138;28;20218;-75
2023/01/30 06:52:41;;;;;;;5.03;1.30;;;;;12.40;101378.00;;;;5073814;28;20199;-74
2023/01/30 06:55:09;;;;;;;6.97;1.10;;;;;12.30;101372.00;;;;5071906;28;20198;-74
2023/01/30 06:57:37;;;;;;;8.30;1.70;;;;;12.30;101376.00;;;;5082359;28;20218;-74
2023/01/30 07:00:05;;;;;;;4.63;1.48;;;;;12.30;101384.00;;;;5082390;28;20198;-74
2023/01/30 07:02:35;;;;;;;8.95;1.70;;;;;12.20;101375.00;;;;5085060;28;20194;-75
2023/01/30 07:05:02;;;;;;;6.50;1.42;;;;;12.20;101384.00;;;;5078696;28;20220;-75
2023/01/30 07:07:30;;;;;;;10.55;1.83;;;;;12.20;101385.00;;;;5086558;28;20205;-75
2023/01/30 07:09:58;;;;;;;8.32;1.98;;;;;12.20;101395.00;;;;5082802;28;20198;-75
2023/01/30 07:12:26;;;;;;;8.75;1.42;;;;;12.10;101393.00;;;;5087903;28;20711;-74
2023/01/30 07:14:54;;;;;;;8.13;1.20;;;;;12.10;101391.00;;;;5079718;28;20198;-75
2023/01/30 07:17:22;;;;;;;5.10;1.40;;;;;12.10;101411.00;;;;5072662;28;20632;-74
2023/01/30 07:19:50;;;;;;;10.70;1.98;;;;;12.00;101410.00;;;;5078559;28;20549;-76
2023/01/30 07:22:17;;;;;;;6.65;1.58;;;;;12.00;101414.00;;;;5075990;28;20194;-76
2023/01/30 07:24:45;;;;;;;7.80;1.45;;;;;12.00;101413.00;;;;5082154;28;20302;-75
2023/01/30 07:27:13;;;;;;;9.93;2.53;;;;;12.00;101429.00;;;;5073248;28;20202;-75
2023/01/30 07:29:41;;;;;;;12.77;1.50;;;;;11.90;101421.00;;;;5086462;28;20728;-75
2023/01/30 07:32:13;;;;;;;7.43;1.67;;;;;11.90;101424.00;;;;5087375;28;20206;-75
2023/01/30 07:34:41;;;;;;;14.68;2.40;;;;;11.90;101429.00;;;;5084627;28;20575;-75
2023/01/30 07:37:09;;;;;;;12.73;2.75;;;;;11.90;101422.00;;;;5078734;28;20201;-75
2023/01/30 07:39:37;;;;;;;7.32;2.15;;;;;11.90;101424.00;;;;5090159;28;20213;-75
2023/01/30 07:42:04;;;;;;;6.55;1.20;;;;;11.90;101427.00;;;;5071416;28;20689;-75
2023/01/30 07:44:33;;;;;;;8.10;1.30;;;;;11.90;101432.00;;;;5073475;28;20774;-77
2023/01/30 07:47:00;;;;;;;6.30;1.40;;;;;11.80;101442.00;;;;5085965;28;20230;-75
2023/01/30 07:49:27;;;;;;;9.85;1.50;;;;;11.90;101447.00;;;;5085660;28;20202;-75
2023/01/30 07:51:54;;;;;;;9.65;1.80;;;;;11.80;101444.00;;;;5085219;28;20214;-76
2023/01/30 07:54:23;;;;;;;11.90;1.50;;;;;11.80;101443.00;;;;5083905;28;20190;-75
2023/01/30 07:56:51;;;;;;;6.28;1.23;;;;;11.80;101435.00;;;;5079086;28;20205;-75
2023/01/30 07:59:18;;;;;;;8.75;1.13;;;;;11.80;101438.00;;;;5080326;28;20230;-75
2023/01/30 08:01:45;;;;;;;9.30;2.45;;;;;11.80;101441.00;;;;5081863;28;20196;-75
2023/01/30 08:04:12;;;;;;;5.03;1.20;;;;;11.80;101440.00;;;;5080452;28;20201;-75
2023/01/30 08:06:39;;;;;;;6.65;1.42;;;;;11.80;101442.00;;;;5077468;28;20210;-75
2023/01/30 08:09:07;;;;;;;7.47;1.65;;;;;11.80;101450.00;;;;5077015;28;20576;-75
2023/01/30 08:11:36;;;;;;;5.15;1.05;;;;;11.90;101441.00;;;;5078115;28;20195;-76
2023/01/30 08:14:03;;;;;;;9.55;1.63;;;;;11.90;101449.00;;;;5080862;28;20233;-76
2023/01/30 08:16:32;;;;;;;8.40;1.60;;;;;11.90;101447.00;;;;5084084;28;20577;-76
2023/01/30 08:19:00;;;;;;;9.75;2.25;;;;;11.90;101448.00;;;;5088933;28;20222;-77
2023/01/30 08:21:27;;;;;;;4.38;1.25;;;;;11.90;101445.00;;;;5089325;28;20198;-76
2023/01/30 08:23:55;;;;;;;4.63;1.38;;;;;11.90;101454.00;;;;5080038;28;20195;-76
2023/01/30 08:26:22;;;;;;;5.68;1.27;;;;;12.00;101455.00;;;;5074855;28;20206;-76
2023/01/30 08:28:50;;;;;;;12.68;2.00;;;;;12.00;101468.00;;;;5088829;28;20198;-76
2023/01/30 08:31:18;;;;;;;11.00;1.70;;;;;12.00;101466.00;;;;5083808;28;20199;-76
2023/01/30 08:33:45;;;;;;;7.90;1.65;;;;;12.10;101465.00;;;;5079610;28;20195;-76
2023/01/30 08:36:13;;;;;;;8.77;1.35;;;;;12.10;101479.00;;;;5084624;28;20209;-75
2023/01/30 08:38:40;;;;;;;5.03;1.63;;;;;12.20;101474.00;;;;5074024;28;20310;-76
2023/01/30 08:41:08;;;;;;;6.70;1.00;;;;;12.30;101483.00;;;;5086412;28;20206;-76
2023/01/30 08:43:35;;;;;;;2.60;0.88;;;;;12.30;101474.00;;;;5083429;28;20201;-76
2023/01/30 08:46:05;;;;;;;4.45;1.30;;;;;12.30;101481.00;;;;5069426;28;20254;-76
2023/01/30 08:48:32;;;;;;;12.32;1.77;;;;;12.40;101486.00;;;;5077404;28;20221;-76
2023/01/30 08:50:59;;;;;;;6.15;1.45;;;;;12.40;101496.00;;;;5085656;28;20222;-75
2023/01/30 08:53:27;;;;;;;13.30;2.17;;;;;12.50;101495.00;;;;5079277;28;20198;-75
2023/01/30 08:55:54;;;;;;;9.68;1.75;;;;;12.50;101509.00;;;;5072934;28;20199;-75
2023/01/30 08:58:23;;;;;;;6.95;1.38;;;;;12.60;101497.00;;;;5074535;28;20210;-75
2023/01/30 09:00:50;;;;;;;8.40;1.63;;;;;12.60;101502.00;;;;5081085;28;20190;-74
2023/01/30 09:03:19;;;;;;;8.98;1.63;;;;;12.60;101514.00;;;;5081849;28;20198;-74
2023/01/30 09:05:47;;;;;;;7.95;1.90;;;;;12.70;101517.00;;;;5070345;28;20202;-75
2023/01/30 09:08:14;;;;;;;7.05;1.55;;;;;12.70;101504.00;;;;5087224;28;20210;-75
2023/01/30 09:10:41;;;;;;;8.60;1.52;;;;;12.70;101515.00;;;;5071892;28;20199;-75
2023/01/30 09:13:09;;;;;;;7.22;1.25;;;;;12.80;101514.00;;;;5074702;28;20210;-75
2023/01/30 09:15:37;;;;;;;6.82;1.60;;;;;12.80;101508.00;;;;5073305;28;20187;-75
2023/01/30 09:18:04;;;;;;;9.07;1.70;;;;;12.90;101494.00;;;;5081495;28;20225;-76
2023/01/30 09:20:33;;;;;;;10.63;2.60;;;;;12.90;101511.00;;;;5074192;28;20203;-76
2023/01/30 09:23:01;;;;;;;7.25;1.48;;;;;12.90;101518.00;;;;5070239;28;20229;-76
2023/01/30 09:25:29;;;;;;;10.07;1.75;;;;;12.90;101517.00;;;;5074238;28;21051;-75
2023/01/30 09:27:56;;;;;;;12.30;1.55;;;;;13.00;101523.00;;;;5084999;28;20202;-75
2023/01/30 09:30:23;;;;;;;9.57;1.70;;;;;13.00;101529.00;;;;5081336;28;20190;-75
2023/01/30 09:32:50;;;;;;;9.65;1.80;;;;;13.00;101519.00;;;;5084113;28;20202;-75
2023/01/30 09:35:18;;;;;;;7.45;2.10;;;;;13.10;101508.00;;;;5070283;28;20201;-75
2023/01/30 09:37:52;;;;;;;8.38;2.63;;;;;13.00;101528.00;;;;5078339;28;20201;-75
2023/01/30 09:40:22;;;;;;;7.20;1.27;;;;;13.10;101533.00;;;;5072758;28;20566;-75
2023/01/30 09:43:17;;;;;;;9.43;1.65;;;;;13.00;101544.00;;;;5077085;28;20202;-76
2023/01/30 09:45:57;;;;;;;5.20;1.10;;;;;13.20;101541.00;;;;5035820;28;20763;-76
2023/01/30 09:48:32;;;;;;;7.63;1.50;;;;;13.10;101533.00;;;;5078641;28;20202;-75
2023/01/30 09:51:13;;;;;;;8.43;1.83;;;;;13.10;101547.00;;;;5084037;28;20225;-76
2023/01/30 09:53:57;;;;;;;7.25;1.33;;;;;13.20;101553.00;;;;5073821;28;20206;-75
2023/01/30 09:56:24;;;;;;;8.05;1.80;;;;;13.30;101564.00;;;;5080355;28;20197;-75
2023/01/30 09:58:56;;;;;;;10.10;1.52;;;;;13.30;101572.00;;;;5084798;28;20226;-75
2023/01/30 10:01:30;;;;;;;6.03;1.60;;;;;13.30;101569.00;;;;5076333;28;20207;-75
2023/01/30 10:04:12;;;;;;;7.60;1.80;;;;;13.30;101574.00;;;;5084323;28;20189;-76
2023/01/30 10:06:47;;;;;;;10.48;2.53;;;;;13.30;101570.00;;;;5082232;28;20194;-75
2023/01/30 10:09:24;;;;;;;8.30;1.40;;;;;13.30;101570.00;;;;5082713;28;20206;-75
2023/01/30 10:12:02;;;;;;;5.38;1.50;;;;;13.30;101568.00;;;;5068398;28;20661;-76
2023/01/30 10:14:46;;;;;;;7.22;1.35;;;;;13.20;101570.00;;;;5075655;28;20213;-75
2023/01/30 10:17:27;;;;;;;10.52;1.75;;;;;13.20;101573.00;;;;5074737;28;20202;-75
2023/01/30 10:20:19;;;;;;;6.47;1.38;;;;;13.30;101588.00;;;;5078162;28;20225;-76
2023/01/30 10:23:01;;;;;;;4.82;1.27;;;;;13.30;101608.00;;;;5073997;28;20191;-75
2023/01/30 10:25:33;;;;;;;13.13;1.92;;;;;13.40;101599.00;;;;5066543;28;20198;-75
2023/01/30 10:28:06;;;;;;;5.43;1.52;;;;;13.40;101592.00;;;;5066384;28;20202;-75
2023/01/30 10:30:34;;;;;;;10.02;2.00;;;;;13.50;101590.00;;;;5075256;28;20652;-76
2023/01/30 10:33:05;;;;;;;10.68;2.20;;;;;13.50;101597.00;;;;5074683;28;20190;-75
2023/01/30 10:35:36;;;;;;;11.25;1.85;;;;;13.40;101623.00;;;;5077686;28;20194;-75
2023/01/30 10:38:12;;;;;;;15.55;2.47;;;;;13.50;101597.00;;;;5067799;28;20612;-76
2023/01/30 10:40:47;;;;;;;7.75;1.95;;;;;13.50;101597.00;;;;5076951;28;20197;-76
2023/01/30 10:43:20;;;;;;;7.22;1.83;;;;;13.50;101599.00;;;;5082641;28;20193;-75
2023/01/30 10:45:57;;;;;;;9.45;1.77;;;;;13.50;101589.00;;;;5082948;28;20230;-75
2023/01/30 10:48:47;;;;;;;10.35;2.13;;;;;13.50;101605.00;;;;5078469;28;20198;-75
2023/01/30 10:51:24;;;;;;;6.78;1.48;;;;;13.60;101598.00;;;;5073724;28;20218;-76
2023/01/30 10:53:57;;;;;;;5.93;1.27;;;;;13.60;101606.00;;;;5072241;28;20194;-75
2023/01/30 10:56:40;;;;;;;9.88;1.50;;;;;13.60;101598.00;;;;5068970;28;20198;-75
2023/01/30 10:59:20;;;;;;;9.38;1.58;;;;;13.60;101609.00;;;;5074828;28;20222;-75
2023/01/30 11:01:54;;;;;;;14.65;2.08;;;;;13.60;101629.00;;;;5069533;28;20199;-75
2023/01/30 11:04:30;;;;;;;6.10;1.80;;;;;13.60;101613.00;;;;5072549;28;20191;-74
2023/01/30 11:06:59;;;;;;;5.93;1.00;;;;;13.60;101605.00;;;;5074585;28;20729;-76
2023/01/30 11:09:39;;;;;;;10.25;1.98;;;;;13.60;101614.00;;;;5077229;28;20194;-75
2023/01/30 11:12:08;;;;;;;10.82;1.92;;;;;13.60;101620.00;;;;5072545;28;20202;-74
2023/01/30 11:14:53;;;;;;;8.32;1.48;;;;;13.50;101614.00;;;;5083797;28;20202;-74
2023/01/30 11:17:22;;;;;;;8.95;2.35;;;;;13.70;101612.00;;;;5072037;28;20206;-74
2023/01/30 11:19:56;;;;;;;6.00;1.73;;;;;13.70;101604.00;;;;5075514;28;20226;-74
2023/01/30 11:22:26;;;;;;;3.80;1.30;;;;;13.80;101628.00;;;;5069516;28;20272;-74
2023/01/30 11:25:02;;;;;;;9.18;1.33;;;;;13.80;101605.00;;;;5070469;28;20203;-74
2023/01/30 11:27:33;;;;;;;9.32;2.05;;;;;13.90;101620.00;;;;5070929;28;20202;-75
2023/01/30 11:30:11;;;;;;;8.55;1.70;;;;;13.90;101609.00;;;;5073449;28;20214;-74
2023/01/30 11:32:39;;;;;;;8.20;2.08;;;;;14.00;101599.00;;;;5076920;28;20198;-74
2023/01/30 11:35:27;;;;;;;7.55;2.05;;;;;13.90;101620.00;;;;5083027;28;20195;-74
2023/01/30 11:38:10;;;;;;;11.50;2.63;;;;;14.00;101608.00;;;;5087052;28;20634;-74
2023/01/30 11:40:39;;;;;;;11.38;2.08;;;;;14.00;101603.00;;;;5079748;28;20201;-74
2023/01/30 11:43:13;;;;;;;10.95;2.20;;;;;14.00;101604.00;;;;5081078;28;20190;-75
2023/01/30 11:45:44;;;;;;;6.22;1.50;;;;;14.10;101598.00;;;;5076802;28;20227;-74
2023/01/30 11:48:18;;;;;;;13.10;2.13;;;;;14.20;101587.00;;;;5071606;28;20206;-74
2023/01/30 11:50:47;;;;;;;8.30;1.35;;;;;14.30;101613.00;;;;5074976;28;20658;-74
2023/01/30 11:53:34;;;;;;;10.27;1.90;;;;;14.20;101620.00;;;;5073729;28;20198;-74
2023/01/30 11:56:06;;;;;;;9.95;2.10;;;;;14.30;101613.00;;;;5082980;28;20217;-74
2023/01/30 11:58:39;;;;;;;8.23;2.20;;;;;14.30;101601.00;;;;5086696;28;20237;-75
2023/01/30 12:01:09;;;;;;;7.35;2.08;;;;;14.20;101616.00;;;;5081397;28;20621;-74
2023/01/30 12:03:44;;;;;;;4.93;1.35;;;;;14.30;101606.00;;;;5081765;28;20211;-74
2023/01/30 12:06:12;;;;;;;7.07;2.13;;;;;14.30;101624.00;;;;5069354;28;20195;-74
2023/01/30 12:08:43;;;;;;;5.75;1.95;;;;;14.40;101619.00;;;;5070546;28;20248;-74
2023/01/30 12:11:26;;;;;;;9.65;2.40;;;;;14.30;101614.00;;;;5069125;28;20199;-74
2023/01/30 12:13:59;;;;;;;6.03;1.27;;;;;14.40;101619.00;;;;5072578;28;20186;-74
2023/01/30 12:16:40;;;;;;;10.07;1.50;;;;;14.50;101615.00;;;;5078174;28;20223;-74
2023/01/30 12:19:20;;;;;;;9.82;1.63;;;;;14.50;101607.00;;;;5068810;28;20233;-74
2023/01/30 12:21:57;;;;;;;10.65;1.75;;;;;14.50;101623.00;;;;5070753;28;20206;-74
2023/01/30 12:24:33;;;;;;;11.38;2.38;;;;;14.40;101624.00;;;;5076733;28;20210;-75
2023/01/30 12:27:04;;;;;;;7.00;1.88;;;;;14.40;101639.00;;;;5073159;28;20199;-74
2023/01/30 12:29:36;;;;;;;8.13;1.80;;;;;14.40;101630.00;;;;5075177;28;20205;-74